sensor_id;sensor_type;location;lat;lon;timestamp;temperature;humidity
37530;DHT22;23374;52.758;6.872;2023-04-06T00:01:11;5.40;1.00
37530;DHT22;23374;52.758;6.872;2023-04-06T00:03:31;5.40;1.00
37530;DHT22;23374;52.758;6.872;2023-04-06T00:05:52;5.40;1.00
37530;DHT22;23374;52.758;6.872;2023-04-06T00:08:13;5.30;1.00
37530;DHT22;23374;52.758;6.872;2023-04-06T00:10:33;5.30;3.40
37530;DHT22;23374;52.758;6.872;2023-04-06T00:12:55;5.20;1.00
37530;DHT22;23374;52.758;6.872;2023-04-06T00:15:17;5.20;1.00
37530;DHT22;23374;52.758;6.872;2023-04-06T00:17:38;5.10;99.90
37530;DHT22;23374;52.758;6.872;2023-04-06T00:19:58;5.10;99.90
37530;DHT22;23374;52.758;6.872;2023-04-06T00:22:18;5.00;1.00
37530;DHT22;23374;52.758;6.872;2023-04-06T00:24:39;5.00;91.90
37530;DHT22;23374;52.758;6.872;2023-04-06T00:26:59;4.90;18.10
37530;DHT22;23374;52.758;6.872;2023-04-06T00:29:20;4.80;99.90
37530;DHT22;23374;52.758;6.872;2023-04-06T00:31:40;4.80;1.00
37530;DHT22;23374;52.758;6.872;2023-04-06T00:34:00;4.80;16.00
37530;DHT22;23374;52.758;6.872;2023-04-06T00:36:21;4.70;99.90
37530;DHT22;23374;52.758;6.872;2023-04-06T00:38:41;4.60;1.00
37530;DHT22;23374;52.758;6.872;2023-04-06T00:41:04;4.50;99.90
37530;DHT22;23374;52.758;6.872;2023-04-06T00:43:24;4.40;99.90
37530;DHT22;23374;52.758;6.872;2023-04-06T00:45:45;4.30;95.80
37530;DHT22;23374;52.758;6.872;2023-04-06T00:48:06;4.30;89.50
37530;DHT22;23374;52.758;6.872;2023-04-06T00:50:27;4.20;87.60
37530;DHT22;23374;52.758;6.872;2023-04-06T00:52:47;4.20;69.70
37530;DHT22;23374;52.758;6.872;2023-04-06T00:55:08;4.20;92.00
37530;DHT22;23374;52.758;6.872;2023-04-06T00:57:29;4.30;89.20
37530;DHT22;23374;52.758;6.872;2023-04-06T00:59:49;4.20;99.90
37530;DHT22;23374;52.758;6.872;2023-04-06T01:02:10;4.20;82.90
37530;DHT22;23374;52.758;6.872;2023-04-06T01:06:12;4.20;99.90
37530;DHT22;23374;52.758;6.872;2023-04-06T01:08:33;4.20;94.60
37530;DHT22;23374;52.758;6.872;2023-04-06T01:10:53;4.10;99.90
37530;DHT22;23374;52.758;6.872;2023-04-06T01:13:14;4.20;95.50
37530;DHT22;23374;52.758;6.872;2023-04-06T01:15:35;4.10;99.90
37530;DHT22;23374;52.758;6.872;2023-04-06T01:17:58;4.10;99.50
37530;DHT22;23374;52.758;6.872;2023-04-06T01:20:19;4.10;99.90
37530;DHT22;23374;52.758;6.872;2023-04-06T01:22:40;4.10;99.90
37530;DHT22;23374;52.758;6.872;2023-04-06T01:25:00;4.10;99.90
37530;DHT22;23374;52.758;6.872;2023-04-06T01:27:20;4.10;99.90
37530;DHT22;23374;52.758;6.872;2023-04-06T01:29:40;4.10;99.90
37530;DHT22;23374;52.758;6.872;2023-04-06T01:32:01;4.10;99.90
37530;DHT22;23374;52.758;6.872;2023-04-06T01:34:22;4.10;99.90
37530;DHT22;23374;52.758;6.872;2023-04-06T01:36:42;4.10;99.90
37530;DHT22;23374;52.758;6.872;2023-04-06T01:39:03;4.10;99.90
37530;DHT22;23374;52.758;6.872;2023-04-06T01:41:23;4.00;99.90
37530;DHT22;23374;52.758;6.872;2023-04-06T01:43:46;4.00;99.90
37530;DHT22;23374;52.758;6.872;2023-04-06T01:46:07;4.00;99.90
37530;DHT22;23374;52.758;6.872;2023-04-06T01:48:28;4.00;99.90
37530;DHT22;23374;52.758;6.872;2023-04-06T01:50:48;3.90;99.90
37530;DHT22;23374;52.758;6.872;2023-04-06T01:53:08;3.90;97.90
37530;DHT22;23374;52.758;6.872;2023-04-06T01:55:29;3.90;99.90
37530;DHT22;23374;52.758;6.872;2023-04-06T01:57:49;3.90;99.90
37530;DHT22;23374;52.758;6.872;2023-04-06T02:00:11;3.90;99.90
37530;DHT22;23374;52.758;6.872;2023-04-06T02:02:32;3.80;99.90
37530;DHT22;23374;52.758;6.872;2023-04-06T02:04:52;3.80;99.90
37530;DHT22;23374;52.758;6.872;2023-04-06T02:07:12;3.80;1.00
37530;DHT22;23374;52.758;6.872;2023-04-06T02:09:33;3.80;99.90
37530;DHT22;23374;52.758;6.872;2023-04-06T02:11:53;3.80;1.00
37530;DHT22;23374;52.758;6.872;2023-04-06T02:14:13;3.80;99.90
37530;DHT22;23374;52.758;6.872;2023-04-06T02:16:33;3.80;99.90
37530;DHT22;23374;52.758;6.872;2023-04-06T02:18:54;3.80;1.00
37530;DHT22;23374;52.758;6.872;2023-04-06T02:21:14;3.70;99.90
37530;DHT22;23374;52.758;6.872;2023-04-06T02:23:37;3.70;99.90
37530;DHT22;23374;52.758;6.872;2023-04-06T02:25:58;3.70;99.90
37530;DHT22;23374;52.758;6.872;2023-04-06T02:28:18;3.60;99.90
37530;DHT22;23374;52.758;6.872;2023-04-06T02:30:38;3.60;99.90
37530;DHT22;23374;52.758;6.872;2023-04-06T02:33:01;3.50;99.90
37530;DHT22;23374;52.758;6.872;2023-04-06T02:35:21;3.40;99.90
37530;DHT22;23374;52.758;6.872;2023-04-06T02:37:42;3.40;99.90
37530;DHT22;23374;52.758;6.872;2023-04-06T02:40:03;3.40;99.90
37530;DHT22;23374;52.758;6.872;2023-04-06T02:42:23;3.40;99.90
37530;DHT22;23374;52.758;6.872;2023-04-06T02:44:44;3.40;99.90
37530;DHT22;23374;52.758;6.872;2023-04-06T02:47:04;3.40;99.90
37530;DHT22;23374;52.758;6.872;2023-04-06T02:49:25;3.40;99.90
37530;DHT22;23374;52.758;6.872;2023-04-06T02:51:45;3.40;99.90
37530;DHT22;23374;52.758;6.872;2023-04-06T02:54:05;3.30;99.90
37530;DHT22;23374;52.758;6.872;2023-04-06T02:56:26;3.30;99.90
37530;DHT22;23374;52.758;6.872;2023-04-06T02:58:47;3.30;99.90
37530;DHT22;23374;52.758;6.872;2023-04-06T03:01:07;3.30;99.90
37530;DHT22;23374;52.758;6.872;2023-04-06T03:03:28;3.30;99.90
37530;DHT22;23374;52.758;6.872;2023-04-06T03:05:48;3.30;99.90
37530;DHT22;23374;52.758;6.872;2023-04-06T03:08:09;3.30;99.90
37530;DHT22;23374;52.758;6.872;2023-04-06T03:10:29;3.30;99.90
37530;DHT22;23374;52.758;6.872;2023-04-06T03:12:49;3.30;99.90
37530;DHT22;23374;52.758;6.872;2023-04-06T03:15:10;3.30;99.90
37530;DHT22;23374;52.758;6.872;2023-04-06T03:17:31;3.30;99.90
37530;DHT22;23374;52.758;6.872;2023-04-06T03:19:52;3.30;99.90
37530;DHT22;23374;52.758;6.872;2023-04-06T03:22:12;3.20;99.90
37530;DHT22;23374;52.758;6.872;2023-04-06T03:24:33;3.10;99.90
37530;DHT22;23374;52.758;6.872;2023-04-06T03:26:53;3.10;99.90
37530;DHT22;23374;52.758;6.872;2023-04-06T03:29:13;3.00;99.90
37530;DHT22;23374;52.758;6.872;2023-04-06T03:31:35;3.00;99.90
37530;DHT22;23374;52.758;6.872;2023-04-06T03:33:55;3.00;99.90
37530;DHT22;23374;52.758;6.872;2023-04-06T03:36:16;3.00;99.90
37530;DHT22;23374;52.758;6.872;2023-04-06T03:38:36;3.10;99.90
37530;DHT22;23374;52.758;6.872;2023-04-06T03:40:57;3.10;99.90
37530;DHT22;23374;52.758;6.872;2023-04-06T03:43:17;3.20;99.90
37530;DHT22;23374;52.758;6.872;2023-04-06T03:45:38;3.30;99.90
37530;DHT22;23374;52.758;6.872;2023-04-06T03:47:58;3.30;99.90
37530;DHT22;23374;52.758;6.872;2023-04-06T03:50:19;3.20;99.90
37530;DHT22;23374;52.758;6.872;2023-04-06T03:52:39;3.20;99.90
37530;DHT22;23374;52.758;6.872;2023-04-06T03:54:59;3.10;99.90
37530;DHT22;23374;52.758;6.872;2023-04-06T03:57:20;3.10;99.90
37530;DHT22;23374;52.758;6.872;2023-04-06T03:59:40;3.10;99.90
37530;DHT22;23374;52.758;6.872;2023-04-06T04:02:01;3.10;99.90
37530;DHT22;23374;52.758;6.872;2023-04-06T04:04:21;3.20;99.90
37530;DHT22;23374;52.758;6.872;2023-04-06T04:06:41;3.20;99.90
37530;DHT22;23374;52.758;6.872;2023-04-06T04:09:02;3.20;99.90
37530;DHT22;23374;52.758;6.872;2023-04-06T04:11:22;3.20;99.90
37530;DHT22;23374;52.758;6.872;2023-04-06T04:13:43;3.10;99.90
37530;DHT22;23374;52.758;6.872;2023-04-06T04:16:04;3.10;99.90
37530;DHT22;23374;52.758;6.872;2023-04-06T04:18:24;3.00;99.90
37530;DHT22;23374;52.758;6.872;2023-04-06T04:20:46;3.00;1.00
37530;DHT22;23374;52.758;6.872;2023-04-06T04:23:06;3.00;99.90
37530;DHT22;23374;52.758;6.872;2023-04-06T04:25:27;3.00;99.90
37530;DHT22;23374;52.758;6.872;2023-04-06T04:27:47;3.00;99.90
37530;DHT22;23374;52.758;6.872;2023-04-06T04:30:08;3.00;99.90
37530;DHT22;23374;52.758;6.872;2023-04-06T04:32:29;2.90;99.90
37530;DHT22;23374;52.758;6.872;2023-04-06T04:34:49;2.90;99.90
37530;DHT22;23374;52.758;6.872;2023-04-06T04:37:09;2.90;99.90
37530;DHT22;23374;52.758;6.872;2023-04-06T04:39:30;2.90;99.90
37530;DHT22;23374;52.758;6.872;2023-04-06T04:41:51;2.80;99.90
37530;DHT22;23374;52.758;6.872;2023-04-06T04:44:11;2.90;99.90
37530;DHT22;23374;52.758;6.872;2023-04-06T04:46:31;2.80;99.90
37530;DHT22;23374;52.758;6.872;2023-04-06T04:48:52;2.80;99.90
37530;DHT22;23374;52.758;6.872;2023-04-06T04:51:12;2.90;99.90
37530;DHT22;23374;52.758;6.872;2023-04-06T04:53:33;2.90;99.90
37530;DHT22;23374;52.758;6.872;2023-04-06T04:55:54;2.90;99.90
37530;DHT22;23374;52.758;6.872;2023-04-06T04:58:15;2.90;99.90
37530;DHT22;23374;52.758;6.872;2023-04-06T05:00:36;2.90;99.90
37530;DHT22;23374;52.758;6.872;2023-04-06T05:02:57;2.90;99.90
37530;DHT22;23374;52.758;6.872;2023-04-06T05:05:17;2.80;1.00
37530;DHT22;23374;52.758;6.872;2023-04-06T05:07:38;2.80;99.90
37530;DHT22;23374;52.758;6.872;2023-04-06T05:09:58;2.80;87.70
37530;DHT22;23374;52.758;6.872;2023-04-06T05:12:19;2.80;99.90
37530;DHT22;23374;52.758;6.872;2023-04-06T05:14:40;2.80;1.00
37530;DHT22;23374;52.758;6.872;2023-04-06T05:17:00;2.80;99.90
37530;DHT22;23374;52.758;6.872;2023-04-06T05:19:21;2.80;99.90
37530;DHT22;23374;52.758;6.872;2023-04-06T05:21:41;2.90;1.00
37530;DHT22;23374;52.758;6.872;2023-04-06T05:24:02;2.80;1.00
37530;DHT22;23374;52.758;6.872;2023-04-06T05:26:22;2.90;1.00
37530;DHT22;23374;52.758;6.872;2023-04-06T05:28:43;2.90;1.00
37530;DHT22;23374;52.758;6.872;2023-04-06T05:31:04;2.90;1.00
37530;DHT22;23374;52.758;6.872;2023-04-06T05:33:25;2.90;1.00
37530;DHT22;23374;52.758;6.872;2023-04-06T05:35:46;2.90;1.00
37530;DHT22;23374;52.758;6.872;2023-04-06T05:38:08;2.90;1.00
37530;DHT22;23374;52.758;6.872;2023-04-06T05:40:29;2.90;1.00
37530;DHT22;23374;52.758;6.872;2023-04-06T05:42:50;2.90;99.90
37530;DHT22;23374;52.758;6.872;2023-04-06T05:45:11;2.90;99.90
37530;DHT22;23374;52.758;6.872;2023-04-06T05:47:37;2.90;99.90
37530;DHT22;23374;52.758;6.872;2023-04-06T05:49:58;2.90;99.90
37530;DHT22;23374;52.758;6.872;2023-04-06T05:52:19;2.90;99.90
37530;DHT22;23374;52.758;6.872;2023-04-06T05:54:39;2.90;99.90
37530;DHT22;23374;52.758;6.872;2023-04-06T05:57:02;2.90;1.00
37530;DHT22;23374;52.758;6.872;2023-04-06T05:59:23;2.90;63.70
37530;DHT22;23374;52.758;6.872;2023-04-06T06:01:43;3.00;1.00
37530;DHT22;23374;52.758;6.872;2023-04-06T06:04:04;3.00;1.00
37530;DHT22;23374;52.758;6.872;2023-04-06T06:06:24;3.00;1.00
37530;DHT22;23374;52.758;6.872;2023-04-06T06:08:45;3.10;1.00
37530;DHT22;23374;52.758;6.872;2023-04-06T06:11:06;3.10;99.90
37530;DHT22;23374;52.758;6.872;2023-04-06T06:13:26;3.20;4.40
37530;DHT22;23374;52.758;6.872;2023-04-06T06:15:47;3.20;42.60
37530;DHT22;23374;52.758;6.872;2023-04-06T06:18:08;3.30;1.00
37530;DHT22;23374;52.758;6.872;2023-04-06T06:20:28;3.30;1.00
37530;DHT22;23374;52.758;6.872;2023-04-06T06:22:49;3.40;1.00
37530;DHT22;23374;52.758;6.872;2023-04-06T06:25:09;3.40;1.00
37530;DHT22;23374;52.758;6.872;2023-04-06T06:27:30;3.40;1.00
37530;DHT22;23374;52.758;6.872;2023-04-06T06:29:50;3.50;1.00
37530;DHT22;23374;52.758;6.872;2023-04-06T06:32:11;3.50;99.90
37530;DHT22;23374;52.758;6.872;2023-04-06T06:34:31;3.60;1.00
37530;DHT22;23374;52.758;6.872;2023-04-06T06:36:52;3.70;99.90
37530;DHT22;23374;52.758;6.872;2023-04-06T06:39:14;3.80;99.90
37530;DHT22;23374;52.758;6.872;2023-04-06T06:41:35;3.80;99.90
37530;DHT22;23374;52.758;6.872;2023-04-06T06:43:56;3.90;99.90
37530;DHT22;23374;52.758;6.872;2023-04-06T06:46:16;3.90;99.90
37530;DHT22;23374;52.758;6.872;2023-04-06T06:48:36;3.90;99.90
37530;DHT22;23374;52.758;6.872;2023-04-06T06:50:57;4.00;99.90
37530;DHT22;23374;52.758;6.872;2023-04-06T06:53:18;4.00;99.90
37530;DHT22;23374;52.758;6.872;2023-04-06T06:55:38;4.20;99.90
37530;DHT22;23374;52.758;6.872;2023-04-06T06:57:58;4.30;1.00
37530;DHT22;23374;52.758;6.872;2023-04-06T07:00:19;4.30;1.00
37530;DHT22;23374;52.758;6.872;2023-04-06T07:02:42;4.40;1.00
37530;DHT22;23374;52.758;6.872;2023-04-06T07:05:03;4.50;99.90
37530;DHT22;23374;52.758;6.872;2023-04-06T07:07:24;4.60;99.90
37530;DHT22;23374;52.758;6.872;2023-04-06T07:09:44;4.70;99.90
37530;DHT22;23374;52.758;6.872;2023-04-06T07:12:05;4.80;99.90
37530;DHT22;23374;52.758;6.872;2023-04-06T07:14:26;4.90;99.90
37530;DHT22;23374;52.758;6.872;2023-04-06T07:16:46;5.00;99.90
37530;DHT22;23374;52.758;6.872;2023-04-06T07:19:08;5.10;99.90
37530;DHT22;23374;52.758;6.872;2023-04-06T07:21:29;5.20;99.90
37530;DHT22;23374;52.758;6.872;2023-04-06T07:23:50;5.30;99.90
37530;DHT22;23374;52.758;6.872;2023-04-06T07:26:10;5.40;99.90
37530;DHT22;23374;52.758;6.872;2023-04-06T07:28:31;5.40;99.90
37530;DHT22;23374;52.758;6.872;2023-04-06T07:30:51;5.50;99.90
37530;DHT22;23374;52.758;6.872;2023-04-06T07:33:12;5.60;99.90
37530;DHT22;23374;52.758;6.872;2023-04-06T07:35:32;5.70;99.90
37530;DHT22;23374;52.758;6.872;2023-04-06T07:37:53;5.80;99.90
37530;DHT22;23374;52.758;6.872;2023-04-06T07:40:15;5.80;99.90
37530;DHT22;23374;52.758;6.872;2023-04-06T07:42:35;5.90;99.90
37530;DHT22;23374;52.758;6.872;2023-04-06T07:44:55;6.00;99.90
37530;DHT22;23374;52.758;6.872;2023-04-06T07:47:16;6.00;99.90
37530;DHT22;23374;52.758;6.872;2023-04-06T07:49:36;6.10;99.90
37530;DHT22;23374;52.758;6.872;2023-04-06T07:51:56;6.20;99.90
37530;DHT22;23374;52.758;6.872;2023-04-06T07:54:17;6.30;99.90
37530;DHT22;23374;52.758;6.872;2023-04-06T07:56:37;6.50;99.90
37530;DHT22;23374;52.758;6.872;2023-04-06T07:58:58;6.60;99.90
37530;DHT22;23374;52.758;6.872;2023-04-06T08:01:18;6.70;99.90
37530;DHT22;23374;52.758;6.872;2023-04-06T08:03:39;6.90;99.90
37530;DHT22;23374;52.758;6.872;2023-04-06T08:06:00;7.00;99.90
37530;DHT22;23374;52.758;6.872;2023-04-06T08:08:21;7.10;99.90
37530;DHT22;23374;52.758;6.872;2023-04-06T08:10:41;7.20;99.90
37530;DHT22;23374;52.758;6.872;2023-04-06T08:13:01;7.30;99.90
37530;DHT22;23374;52.758;6.872;2023-04-06T08:15:22;7.50;99.90
37530;DHT22;23374;52.758;6.872;2023-04-06T08:17:43;7.60;99.90
37530;DHT22;23374;52.758;6.872;2023-04-06T08:20:04;7.60;99.90
37530;DHT22;23374;52.758;6.872;2023-04-06T08:22:24;7.70;99.90
37530;DHT22;23374;52.758;6.872;2023-04-06T08:24:45;7.90;99.90
37530;DHT22;23374;52.758;6.872;2023-04-06T08:27:05;8.00;99.90
37530;DHT22;23374;52.758;6.872;2023-04-06T08:29:26;8.10;99.90
37530;DHT22;23374;52.758;6.872;2023-04-06T08:31:46;8.10;99.90
37530;DHT22;23374;52.758;6.872;2023-04-06T08:34:06;8.20;99.90
37530;DHT22;23374;52.758;6.872;2023-04-06T08:36:27;8.30;99.90
37530;DHT22;23374;52.758;6.872;2023-04-06T08:38:47;8.40;99.90
37530;DHT22;23374;52.758;6.872;2023-04-06T08:41:13;8.50;99.90
37530;DHT22;23374;52.758;6.872;2023-04-06T08:43:46;8.60;99.90
37530;DHT22;23374;52.758;6.872;2023-04-06T08:46:08;8.70;99.90
37530;DHT22;23374;52.758;6.872;2023-04-06T08:48:30;8.80;99.90
37530;DHT22;23374;52.758;6.872;2023-04-06T08:50:50;8.90;99.90
37530;DHT22;23374;52.758;6.872;2023-04-06T08:53:11;9.00;99.90
37530;DHT22;23374;52.758;6.872;2023-04-06T08:55:32;9.10;99.90
37530;DHT22;23374;52.758;6.872;2023-04-06T08:57:54;9.20;99.90
37530;DHT22;23374;52.758;6.872;2023-04-06T09:00:16;9.30;99.90
37530;DHT22;23374;52.758;6.872;2023-04-06T09:02:43;9.40;99.90
37530;DHT22;23374;52.758;6.872;2023-04-06T09:05:04;9.50;99.90
37530;DHT22;23374;52.758;6.872;2023-04-06T09:07:25;9.60;99.90
37530;DHT22;23374;52.758;6.872;2023-04-06T09:09:46;9.70;99.90
37530;DHT22;23374;52.758;6.872;2023-04-06T09:12:09;9.70;99.90
37530;DHT22;23374;52.758;6.872;2023-04-06T09:14:37;9.80;99.90
37530;DHT22;23374;52.758;6.872;2023-04-06T09:16:57;9.90;99.90
37530;DHT22;23374;52.758;6.872;2023-04-06T09:19:18;10.00;99.90
37530;DHT22;23374;52.758;6.872;2023-04-06T09:21:38;10.00;99.90
37530;DHT22;23374;52.758;6.872;2023-04-06T09:24:01;10.20;91.50
37530;DHT22;23374;52.758;6.872;2023-04-06T09:26:21;10.30;92.70
37530;DHT22;23374;52.758;6.872;2023-04-06T09:28:56;10.40;95.50
37530;DHT22;23374;52.758;6.872;2023-04-06T09:31:29;10.50;56.80
37530;DHT22;23374;52.758;6.872;2023-04-06T09:33:50;10.60;55.60
37530;DHT22;23374;52.758;6.872;2023-04-06T09:36:12;10.70;31.80
37530;DHT22;23374;52.758;6.872;2023-04-06T09:38:33;10.80;59.70
37530;DHT22;23374;52.758;6.872;2023-04-06T09:40:54;10.80;51.90
37530;DHT22;23374;52.758;6.872;2023-04-06T09:43:25;10.90;43.30
37530;DHT22;23374;52.758;6.872;2023-04-06T09:45:46;11.00;1.00
37530;DHT22;23374;52.758;6.872;2023-04-06T09:48:07;11.10;23.20
37530;DHT22;23374;52.758;6.872;2023-04-06T09:50:28;11.10;17.40
37530;DHT22;23374;52.758;6.872;2023-04-06T09:52:54;11.00;1.00
37530;DHT22;23374;52.758;6.872;2023-04-06T09:55:40;11.10;1.00
37530;DHT22;23374;52.758;6.872;2023-04-06T09:58:05;11.10;1.00
37530;DHT22;23374;52.758;6.872;2023-04-06T10:00:27;11.10;1.00
37530;DHT22;23374;52.758;6.872;2023-04-06T10:09:55;11.10;1.00
37530;DHT22;23374;52.758;6.872;2023-04-06T10:12:16;11.20;1.00
37530;DHT22;23374;52.758;6.872;2023-04-06T10:14:37;11.20;1.00
37530;DHT22;23374;52.758;6.872;2023-04-06T10:16:58;11.20;1.00
37530;DHT22;23374;52.758;6.872;2023-04-06T10:19:26;11.30;1.00
37530;DHT22;23374;52.758;6.872;2023-04-06T10:21:50;11.30;1.00
37530;DHT22;23374;52.758;6.872;2023-04-06T10:24:12;11.40;1.00
37530;DHT22;23374;52.758;6.872;2023-04-06T10:26:33;11.50;1.00
37530;DHT22;23374;52.758;6.872;2023-04-06T10:28:54;11.60;1.00
37530;DHT22;23374;52.758;6.872;2023-04-06T10:31:23;11.70;1.00
37530;DHT22;23374;52.758;6.872;2023-04-06T10:34:00;11.80;1.00
37530;DHT22;23374;52.758;6.872;2023-04-06T10:36:32;11.80;1.00
37530;DHT22;23374;52.758;6.872;2023-04-06T10:38:59;11.90;1.00
37530;DHT22;23374;52.758;6.872;2023-04-06T10:41:19;11.90;1.00
37530;DHT22;23374;52.758;6.872;2023-04-06T10:43:41;12.00;1.00
37530;DHT22;23374;52.758;6.872;2023-04-06T10:46:03;12.00;1.00
37530;DHT22;23374;52.758;6.872;2023-04-06T10:48:23;12.10;1.00
37530;DHT22;23374;52.758;6.872;2023-04-06T10:50:49;12.10;1.00
37530;DHT22;23374;52.758;6.872;2023-04-06T10:53:09;12.20;1.00
37530;DHT22;23374;52.758;6.872;2023-04-06T10:55:30;12.30;1.00
37530;DHT22;23374;52.758;6.872;2023-04-06T10:57:52;12.40;66.60
37530;DHT22;23374;52.758;6.872;2023-04-06T11:00:13;12.40;95.20
37530;DHT22;23374;52.758;6.872;2023-04-06T11:02:35;12.50;99.90
37530;DHT22;23374;52.758;6.872;2023-04-06T11:04:57;12.50;1.00
37530;DHT22;23374;52.758;6.872;2023-04-06T11:07:26;12.60;1.00
37530;DHT22;23374;52.758;6.872;2023-04-06T11:09:49;12.60;1.00
37530;DHT22;23374;52.758;6.872;2023-04-06T11:12:24;12.70;1.00
37530;DHT22;23374;52.758;6.872;2023-04-06T11:14:54;12.80;1.00
37530;DHT22;23374;52.758;6.872;2023-04-06T11:17:15;12.90;1.00
37530;DHT22;23374;52.758;6.872;2023-04-06T11:19:36;12.90;1.00
37530;DHT22;23374;52.758;6.872;2023-04-06T11:22:07;13.00;1.00
37530;DHT22;23374;52.758;6.872;2023-04-06T11:24:27;13.00;1.00
37530;DHT22;23374;52.758;6.872;2023-04-06T11:26:58;13.00;1.00
37530;DHT22;23374;52.758;6.872;2023-04-06T11:29:26;13.00;1.00
37530;DHT22;23374;52.758;6.872;2023-04-06T11:31:53;12.90;1.00
37530;DHT22;23374;52.758;6.872;2023-04-06T11:34:21;12.90;1.00
37530;DHT22;23374;52.758;6.872;2023-04-06T11:36:43;12.90;1.00
37530;DHT22;23374;52.758;6.872;2023-04-06T11:39:03;12.90;1.00
37530;DHT22;23374;52.758;6.872;2023-04-06T11:41:25;12.90;82.40
37530;DHT22;23374;52.758;6.872;2023-04-06T11:43:49;13.00;1.00
37530;DHT22;23374;52.758;6.872;2023-04-06T11:46:09;13.00;1.00
37530;DHT22;23374;52.758;6.872;2023-04-06T11:48:31;13.00;1.00
37530;DHT22;23374;52.758;6.872;2023-04-06T11:50:59;13.10;1.00
37530;DHT22;23374;52.758;6.872;2023-04-06T11:53:23;13.10;1.00
37530;DHT22;23374;52.758;6.872;2023-04-06T11:55:44;13.20;99.90
37530;DHT22;23374;52.758;6.872;2023-04-06T11:58:06;13.20;1.00
37530;DHT22;23374;52.758;6.872;2023-04-06T12:00:27;13.20;13.10
37530;DHT22;23374;52.758;6.872;2023-04-06T12:02:48;13.20;1.00
37530;DHT22;23374;52.758;6.872;2023-04-06T12:05:10;13.20;1.00
37530;DHT22;23374;52.758;6.872;2023-04-06T12:07:30;13.20;1.00
37530;DHT22;23374;52.758;6.872;2023-04-06T12:09:51;13.20;1.00
37530;DHT22;23374;52.758;6.872;2023-04-06T12:12:11;13.10;1.00
37530;DHT22;23374;52.758;6.872;2023-04-06T12:14:31;13.20;99.90
37530;DHT22;23374;52.758;6.872;2023-04-06T12:16:52;13.20;99.90
37530;DHT22;23374;52.758;6.872;2023-04-06T12:19:12;13.30;99.90
37530;DHT22;23374;52.758;6.872;2023-04-06T12:21:34;13.40;1.00
37530;DHT22;23374;52.758;6.872;2023-04-06T12:23:58;13.40;1.00
37530;DHT22;23374;52.758;6.872;2023-04-06T12:26:19;13.40;9.80
37530;DHT22;23374;52.758;6.872;2023-04-06T12:28:40;13.40;1.00
37530;DHT22;23374;52.758;6.872;2023-04-06T12:31:00;13.40;99.90
37530;DHT22;23374;52.758;6.872;2023-04-06T12:33:21;13.40;99.90
37530;DHT22;23374;52.758;6.872;2023-04-06T12:35:41;13.40;1.00
37530;DHT22;23374;52.758;6.872;2023-04-06T12:38:06;13.40;99.90
37530;DHT22;23374;52.758;6.872;2023-04-06T12:40:27;13.40;99.90
37530;DHT22;23374;52.758;6.872;2023-04-06T12:42:47;13.50;1.00
37530;DHT22;23374;52.758;6.872;2023-04-06T12:45:09;13.50;99.90
37530;DHT22;23374;52.758;6.872;2023-04-06T12:47:29;13.60;1.00
37530;DHT22;23374;52.758;6.872;2023-04-06T12:49:50;13.60;65.60
37530;DHT22;23374;52.758;6.872;2023-04-06T12:52:11;13.60;99.90
37530;DHT22;23374;52.758;6.872;2023-04-06T12:54:31;13.70;1.00
37530;DHT22;23374;52.758;6.872;2023-04-06T12:56:52;13.80;1.00
37530;DHT22;23374;52.758;6.872;2023-04-06T12:59:12;13.80;99.90
37530;DHT22;23374;52.758;6.872;2023-04-06T13:01:33;13.70;1.00
37530;DHT22;23374;52.758;6.872;2023-04-06T13:03:53;13.80;1.00
37530;DHT22;23374;52.758;6.872;2023-04-06T13:06:13;13.70;1.00
37530;DHT22;23374;52.758;6.872;2023-04-06T13:08:35;13.80;99.90
37530;DHT22;23374;52.758;6.872;2023-04-06T13:10:59;13.80;99.90
37530;DHT22;23374;52.758;6.872;2023-04-06T13:13:29;13.80;99.90
37530;DHT22;23374;52.758;6.872;2023-04-06T13:15:51;13.80;1.00
37530;DHT22;23374;52.758;6.872;2023-04-06T13:18:11;13.80;77.90
37530;DHT22;23374;52.758;6.872;2023-04-06T13:20:32;13.70;1.00
37530;DHT22;23374;52.758;6.872;2023-04-06T13:22:52;13.70;1.00
37530;DHT22;23374;52.758;6.872;2023-04-06T13:25:13;13.80;99.90
37530;DHT22;23374;52.758;6.872;2023-04-06T13:27:33;13.80;1.00
37530;DHT22;23374;52.758;6.872;2023-04-06T13:29:55;13.80;99.90
37530;DHT22;23374;52.758;6.872;2023-04-06T13:32:16;13.90;1.00
37530;DHT22;23374;52.758;6.872;2023-04-06T13:34:37;13.90;1.00
37530;DHT22;23374;52.758;6.872;2023-04-06T13:36:57;13.90;1.00
37530;DHT22;23374;52.758;6.872;2023-04-06T13:39:17;13.90;1.00
37530;DHT22;23374;52.758;6.872;2023-04-06T13:41:38;13.90;1.00
37530;DHT22;23374;52.758;6.872;2023-04-06T13:44:00;13.90;1.00
37530;DHT22;23374;52.758;6.872;2023-04-06T13:46:20;13.80;1.00
37530;DHT22;23374;52.758;6.872;2023-04-06T13:48:41;13.80;1.00
37530;DHT22;23374;52.758;6.872;2023-04-06T13:51:12;13.70;1.00
37530;DHT22;23374;52.758;6.872;2023-04-06T13:53:32;13.50;1.00
37530;DHT22;23374;52.758;6.872;2023-04-06T13:55:54;13.50;1.00
37530;DHT22;23374;52.758;6.872;2023-04-06T13:58:15;13.50;1.00
37530;DHT22;23374;52.758;6.872;2023-04-06T14:00:36;13.60;1.00
37530;DHT22;23374;52.758;6.872;2023-04-06T14:02:57;13.50;1.00
37530;DHT22;23374;52.758;6.872;2023-04-06T14:05:17;13.50;1.00
37530;DHT22;23374;52.758;6.872;2023-04-06T14:07:37;13.40;1.00
37530;DHT22;23374;52.758;6.872;2023-04-06T14:09:58;13.40;1.00
37530;DHT22;23374;52.758;6.872;2023-04-06T14:12:18;13.30;1.00
37530;DHT22;23374;52.758;6.872;2023-04-06T14:14:38;13.30;1.00
37530;DHT22;23374;52.758;6.872;2023-04-06T14:16:59;13.20;1.00
37530;DHT22;23374;52.758;6.872;2023-04-06T14:19:20;13.20;1.00
37530;DHT22;23374;52.758;6.872;2023-04-06T14:21:42;13.20;1.00
37530;DHT22;23374;52.758;6.872;2023-04-06T14:24:04;13.00;1.00
37530;DHT22;23374;52.758;6.872;2023-04-06T14:26:24;13.00;1.00
37530;DHT22;23374;52.758;6.872;2023-04-06T14:28:45;12.90;1.00
37530;DHT22;23374;52.758;6.872;2023-04-06T14:31:14;12.90;1.00
37530;DHT22;23374;52.758;6.872;2023-04-06T14:33:35;13.00;1.00
37530;DHT22;23374;52.758;6.872;2023-04-06T14:35:56;13.00;1.00
37530;DHT22;23374;52.758;6.872;2023-04-06T14:38:16;12.90;1.00
37530;DHT22;23374;52.758;6.872;2023-04-06T14:40:37;12.80;1.00
37530;DHT22;23374;52.758;6.872;2023-04-06T14:42:57;12.70;1.00
37530;DHT22;23374;52.758;6.872;2023-04-06T14:45:18;12.60;1.00
37530;DHT22;23374;52.758;6.872;2023-04-06T14:47:41;12.60;1.00
37530;DHT22;23374;52.758;6.872;2023-04-06T14:50:02;12.70;1.00
37530;DHT22;23374;52.758;6.872;2023-04-06T14:52:23;12.60;1.00
37530;DHT22;23374;52.758;6.872;2023-04-06T14:54:43;12.50;1.00
37530;DHT22;23374;52.758;6.872;2023-04-06T14:57:04;12.50;1.00
37530;DHT22;23374;52.758;6.872;2023-04-06T14:59:24;12.60;1.00
37530;DHT22;23374;52.758;6.872;2023-04-06T15:01:45;12.60;1.00
37530;DHT22;23374;52.758;6.872;2023-04-06T15:04:05;12.60;1.00
37530;DHT22;23374;52.758;6.872;2023-04-06T15:06:26;12.60;1.00
37530;DHT22;23374;52.758;6.872;2023-04-06T15:08:48;12.60;1.00
37530;DHT22;23374;52.758;6.872;2023-04-06T15:11:10;12.70;1.00
37530;DHT22;23374;52.758;6.872;2023-04-06T15:13:30;12.70;1.00
37530;DHT22;23374;52.758;6.872;2023-04-06T15:15:51;12.70;1.00
37530;DHT22;23374;52.758;6.872;2023-04-06T15:18:12;12.70;1.00